Time,TemperatureF,DewpointF,PressureIn,WindDirection,WindDirectionDegrees,WindSpeedMPH,WindSpeedGustMPH,Humidity,HourlyPrecipIn,Conditions,Clouds,dailyrainin,SoftwareType,DateUTC
2013-10-12 00:29:00,45.6,44.8,30.21,East,85,0.0,0.0,97,0.00,,---,0.00,VWS V14.00,2013-10-12 04:29:00,
2013-10-12 00:59:00,44.4,43.3,30.21,East,85,0.0,0.0,96,0.00,,---,0.00,VWS V14.00,2013-10-12 04:59:00,
2013-10-12 01:29:00,44.2,43.4,30.22,East,85,0.0,0.0,97,0.00,,---,0.00,VWS V14.00,2013-10-12 05:29:00,
2013-10-12 01:59:00,44.3,43.8,30.22,East,85,0.0,1.0,98,0.00,,---,0.00,VWS V14.00,2013-10-12 05:59:00,
2013-10-12 02:29:00,44.1,43.6,30.23,East,85,0.0,0.0,98,0.00,,---,0.00,VWS V14.00,2013-10-12 06:29:00,
2013-10-12 02:59:00,45.1,44.8,30.23,East,85,0.0,0.0,99,0.00,,---,0.00,VWS V14.00,2013-10-12 06:59:00,
2013-10-12 03:29:00,44.8,44.3,30.23,East,85,0.0,0.0,98,0.00,,---,0.00,VWS V14.00,2013-10-12 07:29:00,
2013-10-12 03:59:00,44.5,44.0,30.23,East,85,0.0,1.0,98,0.00,,---,0.00,VWS V14.00,2013-10-12 07:59:00,
2013-10-12 04:29:00,43.2,42.7,30.23,East,85,0.0,0.0,98,0.00,,---,0.00,VWS V14.00,2013-10-12 08:29:00,
2013-10-12 04:59:00,42.2,41.7,30.24,East,85,0.0,0.0,98,0.00,,---,0.00,VWS V14.00,2013-10-12 08:59:00,
2013-10-12 05:29:00,41.8,41.3,30.24,East,85,0.0,0.0,98,0.00,,---,0.00,VWS V14.00,2013-10-12 09:29:00,
2013-10-12 05:59:00,41.1,40.6,30.25,East,85,0.0,0.0,98,0.00,,---,0.00,VWS V14.00,2013-10-12 09:59:00,
2013-10-12 06:29:00,40.8,40.3,30.25,East,85,0.0,0.0,98,0.00,,---,0.00,VWS V14.00,2013-10-12 10:29:00,
2013-10-12 06:59:00,40.9,40.6,30.26,East,85,0.0,0.0,99,0.00,,---,0.00,VWS V14.00,2013-10-12 10:59:00,
2013-10-12 07:29:00,41.0,40.7,30.27,East,85,0.0,0.0,99,0.00,,---,0.00,VWS V14.00,2013-10-12 11:29:00,
2013-10-12 07:59:00,41.0,40.7,30.28,East,85,0.0,0.0,99,0.00,,---,0.00,VWS V14.00,2013-10-12 11:59:00,
2013-10-12 08:29:00,42.9,42.6,30.29,East,85,0.0,0.0,99,0.00,,---,0.00,VWS V14.00,2013-10-12 12:29:00,
2013-10-12 08:59:00,46.1,45.8,30.29,East,85,0.0,1.0,99,0.00,,---,0.00,VWS V14.00,2013-10-12 12:59:00,
2013-10-12 09:29:00,50.8,50.5,30.28,East,85,0.0,1.0,99,0.00,,---,0.00,VWS V14.00,2013-10-12 13:29:00,
2013-10-12 09:59:00,55.2,52.6,30.28,ESE,111,0.0,1.0,91,0.00,,---,0.00,VWS V14.00,2013-10-12 13:59:00,
2013-10-12 10:29:00,60.5,53.6,30.28,ESE,103,3.0,5.0,78,0.00,,---,0.00,VWS V14.00,2013-10-12 14:29:00,
2013-10-12 10:59:00,63.4,54.2,30.28,ENE,69,0.0,4.0,72,0.00,,---,0.00,VWS V14.00,2013-10-12 14:59:00,
2013-10-12 11:29:00,65.4,53.3,30.28,ENE,70,3.0,6.0,65,0.00,,---,0.00,VWS V14.00,2013-10-12 15:29:00,
2013-10-12 11:59:00,67.1,54.1,30.28,ENE,74,2.0,5.0,63,0.00,,---,0.00,VWS V14.00,2013-10-12 15:59:00,
2013-10-12 12:29:00,68.6,53.7,30.27,ENE,74,1.0,5.0,59,0.00,,---,0.00,VWS V14.00,2013-10-12 16:29:00,
2013-10-12 12:59:00,69.7,52.3,30.26,SE,138,2.0,4.0,54,0.00,,---,0.00,VWS V14.00,2013-10-12 16:59:00,
2013-10-12 13:29:00,71.1,53.6,30.25,SE,144,1.0,4.0,54,0.00,,---,0.00,VWS V14.00,2013-10-12 17:29:00,
2013-10-12 13:59:00,70.8,51.8,30.25,ESE,115,3.0,4.0,51,0.00,,---,0.00,VWS V14.00,2013-10-12 17:59:00,
2013-10-12 14:29:00,69.8,51.4,30.25,East,94,5.0,6.0,52,0.00,,---,0.00,VWS V14.00,2013-10-12 18:29:00,
2013-10-12 14:59:00,68.4,49.6,30.25,SE,129,0.0,2.0,51,0.00,,---,0.00,VWS V14.00,2013-10-12 18:59:00,
2013-10-12 15:29:00,67.8,50.1,30.25,NE,34,3.0,6.0,53,0.00,,---,0.00,VWS V14.00,2013-10-12 19:29:00,
2013-10-12 15:59:00,66.6,50.9,30.25,SE,142,1.0,5.0,57,0.00,,---,0.00,VWS V14.00,2013-10-12 19:59:00,
2013-10-12 16:29:00,65.5,50.3,30.25,ESE,114,1.0,5.0,58,0.00,,---,0.00,VWS V14.00,2013-10-12 20:29:00,
2013-10-12 16:59:00,64.5,50.8,30.25,ENE,71,5.0,5.0,61,0.00,,---,0.00,VWS V14.00,2013-10-12 20:59:00,
2013-10-12 17:29:00,63.3,50.9,30.25,SE,130,1.0,3.0,64,0.00,,---,0.00,VWS V14.00,2013-10-12 21:29:00,
2013-10-12 17:59:00,62.2,51.9,30.26,East,88,2.0,3.0,69,0.00,,---,0.00,VWS V14.00,2013-10-12 21:59:00,
2013-10-12 18:29:00,60.9,51.8,30.26,NE,49,3.0,3.0,72,0.00,,---,0.00,VWS V14.00,2013-10-12 22:29:00,
2013-10-12 18:59:00,58.9,51.4,30.26,ENE,60,1.0,2.0,76,0.00,,---,0.00,VWS V14.00,2013-10-12 22:59:00,
2013-10-12 19:29:00,55.7,50.3,30.26,NE,53,1.0,3.0,82,0.00,,---,0.00,VWS V14.00,2013-10-12 23:29:00,
2013-10-12 19:59:00,53.9,49.8,30.27,NE,56,3.0,4.0,86,0.00,,---,0.00,VWS V14.00,2013-10-12 23:59:00,
2013-10-12 20:29:00,53.5,50.0,30.27,ENE,67,0.0,2.0,88,0.00,,---,0.00,VWS V14.00,2013-10-13 00:29:00,
2013-10-12 20:59:00,53.0,49.5,30.28,ENE,57,2.0,4.0,88,0.00,,---,0.00,VWS V14.00,2013-10-13 00:59:00,
2013-10-12 21:29:00,52.7,49.2,30.28,NE,53,2.0,4.0,88,0.00,,---,0.00,VWS V14.00,2013-10-13 01:29:00,
2013-10-12 21:59:00,52.2,49.4,30.29,ENE,73,2.0,2.0,90,0.00,,---,0.00,VWS V14.00,2013-10-13 01:59:00,
2013-10-12 22:29:00,52.3,49.5,30.30,NE,40,1.0,4.0,90,0.00,,---,0.00,VWS V14.00,2013-10-13 02:29:00,
2013-10-12 22:59:00,51.0,48.8,30.30,NE,45,1.0,3.0,92,0.00,,---,0.00,VWS V14.00,2013-10-13 02:59:00,
2013-10-12 23:29:00,50.1,48.4,30.31,NE,48,1.0,2.0,94,0.00,,---,0.00,VWS V14.00,2013-10-13 03:29:00,
2013-10-12 23:59:00,50.7,49.0,30.31,ENE,59,2.0,3.0,94,0.00,,---,0.00,VWS V14.00,2013-10-13 03:59:00,